sensor_id;sensor_type;location;lat;lon;timestamp;P1;durP1;ratioP1;P2;durP2;ratioP2
9304;SDS011;4690;52.422;13.486;2023-09-19T00:13:27;3.70;;;2.45;;
9304;SDS011;4690;52.422;13.486;2023-09-19T00:15:53;4.55;;;2.90;;
9304;SDS011;4690;52.422;13.486;2023-09-19T00:18:20;5.05;;;2.88;;
9304;SDS011;4690;52.422;13.486;2023-09-19T00:20:46;2.83;;;2.45;;
9304;SDS011;4690;52.422;13.486;2023-09-19T00:23:14;3.08;;;2.28;;
9304;SDS011;4690;52.422;13.486;2023-09-19T00:25:40;4.60;;;2.65;;
9304;SDS011;4690;52.422;13.486;2023-09-19T00:28:06;2.60;;;2.40;;
9304;SDS011;4690;52.422;13.486;2023-09-19T00:30:35;2.88;;;2.40;;
9304;SDS011;4690;52.422;13.486;2023-09-19T00:33:03;3.75;;;2.70;;
9304;SDS011;4690;52.422;13.486;2023-09-19T00:35:31;3.58;;;2.63;;
9304;SDS011;4690;52.422;13.486;2023-09-19T00:37:58;2.63;;;2.35;;
9304;SDS011;4690;52.422;13.486;2023-09-19T00:40:23;5.18;;;2.53;;
9304;SDS011;4690;52.422;13.486;2023-09-19T00:42:50;3.45;;;2.40;;
9304;SDS011;4690;52.422;13.486;2023-09-19T00:45:17;3.25;;;2.55;;
9304;SDS011;4690;52.422;13.486;2023-09-19T00:47:49;4.57;;;2.70;;
9304;SDS011;4690;52.422;13.486;2023-09-19T00:50:17;4.03;;;2.60;;
9304;SDS011;4690;52.422;13.486;2023-09-19T00:52:46;3.85;;;2.47;;
9304;SDS011;4690;52.422;13.486;2023-09-19T00:55:15;6.03;;;2.50;;
9304;SDS011;4690;52.422;13.486;2023-09-19T00:57:45;4.95;;;2.55;;
9304;SDS011;4690;52.422;13.486;2023-09-19T01:00:12;3.22;;;2.70;;
9304;SDS011;4690;52.422;13.486;2023-09-19T01:02:41;4.88;;;2.58;;
9304;SDS011;4690;52.422;13.486;2023-09-19T01:05:08;2.42;;;2.10;;
9304;SDS011;4690;52.422;13.486;2023-09-19T01:07:35;5.00;;;3.05;;
9304;SDS011;4690;52.422;13.486;2023-09-19T01:10:05;4.10;;;2.60;;
9304;SDS011;4690;52.422;13.486;2023-09-19T01:27:17;3.72;;;2.45;;
9304;SDS011;4690;52.422;13.486;2023-09-19T01:30:14;2.67;;;2.45;;
9304;SDS011;4690;52.422;13.486;2023-09-19T01:32:50;5.53;;;2.40;;
9304;SDS011;4690;52.422;13.486;2023-09-19T01:35:17;4.72;;;2.55;;
9304;SDS011;4690;52.422;13.486;2023-09-19T01:37:43;3.47;;;2.13;;
9304;SDS011;4690;52.422;13.486;2023-09-19T01:40:11;4.30;;;2.50;;
9304;SDS011;4690;52.422;13.486;2023-09-19T01:45:35;4.22;;;2.88;;
9304;SDS011;4690;52.422;13.486;2023-09-19T01:48:38;3.55;;;2.60;;
9304;SDS011;4690;52.422;13.486;2023-09-19T01:51:40;4.15;;;2.45;;
9304;SDS011;4690;52.422;13.486;2023-09-19T01:54:18;3.92;;;2.67;;
9304;SDS011;4690;52.422;13.486;2023-09-19T01:57:07;3.20;;;2.42;;
9304;SDS011;4690;52.422;13.486;2023-09-19T01:59:48;4.30;;;2.47;;
9304;SDS011;4690;52.422;13.486;2023-09-19T02:02:22;3.35;;;2.35;;
9304;SDS011;4690;52.422;13.486;2023-09-19T02:04:50;2.78;;;2.58;;
9304;SDS011;4690;52.422;13.486;2023-09-19T02:07:17;6.15;;;2.67;;
9304;SDS011;4690;52.422;13.486;2023-09-19T02:09:42;3.05;;;2.40;;
9304;SDS011;4690;52.422;13.486;2023-09-19T02:12:09;3.85;;;2.60;;
9304;SDS011;4690;52.422;13.486;2023-09-19T02:14:35;6.38;;;2.70;;
9304;SDS011;4690;52.422;13.486;2023-09-19T02:17:03;6.50;;;2.38;;
9304;SDS011;4690;52.422;13.486;2023-09-19T02:19:37;3.90;;;2.45;;
9304;SDS011;4690;52.422;13.486;2023-09-19T02:22:04;5.13;;;2.65;;
9304;SDS011;4690;52.422;13.486;2023-09-19T02:24:35;3.92;;;2.40;;
9304;SDS011;4690;52.422;13.486;2023-09-19T02:27:04;2.92;;;2.50;;
9304;SDS011;4690;52.422;13.486;2023-09-19T02:29:30;5.00;;;2.40;;
9304;SDS011;4690;52.422;13.486;2023-09-19T02:31:59;3.38;;;2.63;;
9304;SDS011;4690;52.422;13.486;2023-09-19T02:34:27;3.08;;;2.30;;
9304;SDS011;4690;52.422;13.486;2023-09-19T02:36:54;4.65;;;2.63;;
9304;SDS011;4690;52.422;13.486;2023-09-19T02:39:21;2.67;;;2.30;;
9304;SDS011;4690;52.422;13.486;2023-09-19T02:41:48;3.60;;;2.47;;
9304;SDS011;4690;52.422;13.486;2023-09-19T02:44:14;2.72;;;2.53;;
9304;SDS011;4690;52.422;13.486;2023-09-19T02:46:40;4.85;;;2.60;;
9304;SDS011;4690;52.422;13.486;2023-09-19T02:49:07;4.68;;;2.47;;
9304;SDS011;4690;52.422;13.486;2023-09-19T02:51:33;4.13;;;2.53;;
9304;SDS011;4690;52.422;13.486;2023-09-19T02:53:59;3.42;;;2.30;;
9304;SDS011;4690;52.422;13.486;2023-09-19T02:56:25;3.63;;;2.65;;
9304;SDS011;4690;52.422;13.486;2023-09-19T02:58:51;4.18;;;2.42;;
9304;SDS011;4690;52.422;13.486;2023-09-19T03:01:18;3.67;;;2.40;;
9304;SDS011;4690;52.422;13.486;2023-09-19T03:03:44;3.22;;;2.63;;
9304;SDS011;4690;52.422;13.486;2023-09-19T03:06:10;3.75;;;2.72;;
9304;SDS011;4690;52.422;13.486;2023-09-19T03:08:37;3.35;;;2.53;;
9304;SDS011;4690;52.422;13.486;2023-09-19T03:11:04;2.95;;;2.45;;
9304;SDS011;4690;52.422;13.486;2023-09-19T03:13:36;4.93;;;2.90;;
9304;SDS011;4690;52.422;13.486;2023-09-19T03:16:03;4.00;;;2.45;;
9304;SDS011;4690;52.422;13.486;2023-09-19T03:18:35;3.08;;;2.60;;
9304;SDS011;4690;52.422;13.486;2023-09-19T03:21:02;3.35;;;2.63;;
9304;SDS011;4690;52.422;13.486;2023-09-19T03:23:28;4.53;;;2.92;;
9304;SDS011;4690;52.422;13.486;2023-09-19T03:25:55;3.58;;;2.65;;
9304;SDS011;4690;52.422;13.486;2023-09-19T03:28:21;3.22;;;2.67;;
9304;SDS011;4690;52.422;13.486;2023-09-19T03:31:01;3.50;;;2.42;;
9304;SDS011;4690;52.422;13.486;2023-09-19T03:33:29;5.75;;;2.92;;
9304;SDS011;4690;52.422;13.486;2023-09-19T03:35:57;3.30;;;2.20;;
9304;SDS011;4690;52.422;13.486;2023-09-19T03:38:24;4.00;;;2.70;;
9304;SDS011;4690;52.422;13.486;2023-09-19T03:40:51;4.57;;;2.60;;
9304;SDS011;4690;52.422;13.486;2023-09-19T03:43:16;2.75;;;2.33;;
9304;SDS011;4690;52.422;13.486;2023-09-19T03:45:42;3.00;;;2.70;;
9304;SDS011;4690;52.422;13.486;2023-09-19T03:48:11;4.35;;;2.55;;
9304;SDS011;4690;52.422;13.486;2023-09-19T03:50:39;3.40;;;2.70;;
9304;SDS011;4690;52.422;13.486;2023-09-19T03:53:04;2.78;;;2.45;;
9304;SDS011;4690;52.422;13.486;2023-09-19T03:55:32;2.85;;;2.60;;
9304;SDS011;4690;52.422;13.486;2023-09-19T03:58:00;5.72;;;2.63;;
9304;SDS011;4690;52.422;13.486;2023-09-19T04:00:31;4.30;;;2.28;;
9304;SDS011;4690;52.422;13.486;2023-09-19T04:02:57;3.08;;;2.72;;
9304;SDS011;4690;52.422;13.486;2023-09-19T04:05:23;2.47;;;2.20;;
9304;SDS011;4690;52.422;13.486;2023-09-19T04:07:49;3.30;;;2.28;;
9304;SDS011;4690;52.422;13.486;2023-09-19T04:10:15;3.95;;;2.60;;
9304;SDS011;4690;52.422;13.486;2023-09-19T04:12:50;3.03;;;2.15;;
9304;SDS011;4690;52.422;13.486;2023-09-19T04:15:20;4.20;;;2.10;;
9304;SDS011;4690;52.422;13.486;2023-09-19T04:17:49;3.20;;;2.20;;
9304;SDS011;4690;52.422;13.486;2023-09-19T04:20:17;3.67;;;2.45;;
9304;SDS011;4690;52.422;13.486;2023-09-19T04:22:45;3.80;;;2.42;;
9304;SDS011;4690;52.422;13.486;2023-09-19T04:25:11;3.67;;;2.10;;
9304;SDS011;4690;52.422;13.486;2023-09-19T04:27:37;2.40;;;1.95;;
9304;SDS011;4690;52.422;13.486;2023-09-19T04:30:04;3.20;;;2.17;;
9304;SDS011;4690;52.422;13.486;2023-09-19T04:32:35;3.33;;;2.35;;
9304;SDS011;4690;52.422;13.486;2023-09-19T04:35:03;3.17;;;2.20;;
9304;SDS011;4690;52.422;13.486;2023-09-19T04:37:31;2.88;;;2.25;;
9304;SDS011;4690;52.422;13.486;2023-09-19T04:39:57;2.95;;;2.25;;
9304;SDS011;4690;52.422;13.486;2023-09-19T04:42:23;4.18;;;2.40;;
9304;SDS011;4690;52.422;13.486;2023-09-19T04:44:50;5.45;;;2.38;;
9304;SDS011;4690;52.422;13.486;2023-09-19T04:47:18;3.28;;;2.30;;
9304;SDS011;4690;52.422;13.486;2023-09-19T04:49:43;3.35;;;2.58;;
9304;SDS011;4690;52.422;13.486;2023-09-19T04:52:09;3.45;;;2.30;;
9304;SDS011;4690;52.422;13.486;2023-09-19T04:54:35;3.63;;;2.22;;
9304;SDS011;4690;52.422;13.486;2023-09-19T04:57:00;2.45;;;2.25;;
9304;SDS011;4690;52.422;13.486;2023-09-19T04:59:26;3.45;;;2.30;;
9304;SDS011;4690;52.422;13.486;2023-09-19T05:01:53;4.35;;;2.35;;
9304;SDS011;4690;52.422;13.486;2023-09-19T05:04:19;3.33;;;2.42;;
9304;SDS011;4690;52.422;13.486;2023-09-19T05:06:45;4.30;;;2.40;;
9304;SDS011;4690;52.422;13.486;2023-09-19T05:09:10;4.32;;;2.50;;
9304;SDS011;4690;52.422;13.486;2023-09-19T05:11:36;3.50;;;2.20;;
9304;SDS011;4690;52.422;13.486;2023-09-19T05:14:03;2.72;;;2.30;;
9304;SDS011;4690;52.422;13.486;2023-09-19T05:16:29;8.07;;;2.47;;
9304;SDS011;4690;52.422;13.486;2023-09-19T05:18:58;3.60;;;2.22;;
9304;SDS011;4690;52.422;13.486;2023-09-19T05:21:25;4.60;;;2.20;;
9304;SDS011;4690;52.422;13.486;2023-09-19T05:23:54;6.18;;;2.47;;
9304;SDS011;4690;52.422;13.486;2023-09-19T05:26:20;2.55;;;2.25;;
9304;SDS011;4690;52.422;13.486;2023-09-19T05:28:46;5.25;;;2.53;;
9304;SDS011;4690;52.422;13.486;2023-09-19T05:31:15;4.35;;;2.40;;
9304;SDS011;4690;52.422;13.486;2023-09-19T05:33:41;3.58;;;2.10;;
9304;SDS011;4690;52.422;13.486;2023-09-19T05:36:07;2.40;;;2.20;;
9304;SDS011;4690;52.422;13.486;2023-09-19T05:38:35;4.30;;;2.15;;
9304;SDS011;4690;52.422;13.486;2023-09-19T05:41:02;2.70;;;2.05;;
9304;SDS011;4690;52.422;13.486;2023-09-19T05:43:27;3.90;;;2.10;;
9304;SDS011;4690;52.422;13.486;2023-09-19T05:45:53;3.50;;;2.40;;
9304;SDS011;4690;52.422;13.486;2023-09-19T05:48:21;3.45;;;2.10;;
9304;SDS011;4690;52.422;13.486;2023-09-19T05:50:47;7.15;;;2.30;;
9304;SDS011;4690;52.422;13.486;2023-09-19T05:53:14;5.50;;;2.40;;
9304;SDS011;4690;52.422;13.486;2023-09-19T05:55:40;3.08;;;2.20;;
9304;SDS011;4690;52.422;13.486;2023-09-19T05:58:06;3.70;;;2.38;;
9304;SDS011;4690;52.422;13.486;2023-09-19T06:00:33;3.70;;;2.15;;
9304;SDS011;4690;52.422;13.486;2023-09-19T06:02:59;2.88;;;2.25;;
9304;SDS011;4690;52.422;13.486;2023-09-19T06:05:25;3.53;;;2.30;;
9304;SDS011;4690;52.422;13.486;2023-09-19T06:07:52;3.80;;;2.10;;
9304;SDS011;4690;52.422;13.486;2023-09-19T06:10:19;3.15;;;2.22;;
9304;SDS011;4690;52.422;13.486;2023-09-19T06:12:46;6.43;;;2.22;;
9304;SDS011;4690;52.422;13.486;2023-09-19T06:15:12;3.80;;;2.35;;
9304;SDS011;4690;52.422;13.486;2023-09-19T06:17:50;3.88;;;2.15;;
9304;SDS011;4690;52.422;13.486;2023-09-19T06:20:21;2.13;;;2.00;;
9304;SDS011;4690;52.422;13.486;2023-09-19T06:22:49;3.38;;;2.20;;
9304;SDS011;4690;52.422;13.486;2023-09-19T06:25:15;3.05;;;2.20;;
9304;SDS011;4690;52.422;13.486;2023-09-19T06:27:45;3.85;;;2.10;;
9304;SDS011;4690;52.422;13.486;2023-09-19T06:30:12;2.53;;;2.13;;
9304;SDS011;4690;52.422;13.486;2023-09-19T06:32:39;4.20;;;2.33;;
9304;SDS011;4690;52.422;13.486;2023-09-19T06:35:08;3.85;;;2.25;;
9304;SDS011;4690;52.422;13.486;2023-09-19T06:37:39;4.55;;;2.30;;
9304;SDS011;4690;52.422;13.486;2023-09-19T06:40:07;6.32;;;2.50;;
9304;SDS011;4690;52.422;13.486;2023-09-19T06:42:50;4.97;;;2.53;;
9304;SDS011;4690;52.422;13.486;2023-09-19T06:45:17;2.72;;;2.10;;
9304;SDS011;4690;52.422;13.486;2023-09-19T06:47:53;4.20;;;2.40;;
9304;SDS011;4690;52.422;13.486;2023-09-19T06:50:22;3.75;;;2.45;;
9304;SDS011;4690;52.422;13.486;2023-09-19T06:52:49;2.85;;;2.30;;
9304;SDS011;4690;52.422;13.486;2023-09-19T06:55:21;3.53;;;2.40;;
9304;SDS011;4690;52.422;13.486;2023-09-19T06:57:50;4.28;;;2.60;;
9304;SDS011;4690;52.422;13.486;2023-09-19T07:00:16;3.17;;;2.30;;
9304;SDS011;4690;52.422;13.486;2023-09-19T07:05:27;3.63;;;2.33;;
9304;SDS011;4690;52.422;13.486;2023-09-19T07:07:53;4.18;;;2.40;;
9304;SDS011;4690;52.422;13.486;2023-09-19T07:10:24;3.55;;;2.40;;
9304;SDS011;4690;52.422;13.486;2023-09-19T07:13:11;3.83;;;2.47;;
9304;SDS011;4690;52.422;13.486;2023-09-19T07:15:37;7.97;;;2.75;;
9304;SDS011;4690;52.422;13.486;2023-09-19T07:18:06;3.78;;;2.60;;
9304;SDS011;4690;52.422;13.486;2023-09-19T07:20:35;2.58;;;2.03;;
9304;SDS011;4690;52.422;13.486;2023-09-19T07:23:02;4.75;;;2.53;;
9304;SDS011;4690;52.422;13.486;2023-09-19T07:25:28;5.28;;;2.40;;
9304;SDS011;4690;52.422;13.486;2023-09-19T07:27:55;2.85;;;2.33;;
9304;SDS011;4690;52.422;13.486;2023-09-19T07:30:24;5.60;;;2.60;;
9304;SDS011;4690;52.422;13.486;2023-09-19T07:32:51;4.05;;;2.72;;
9304;SDS011;4690;52.422;13.486;2023-09-19T07:35:17;3.97;;;2.30;;
9304;SDS011;4690;52.422;13.486;2023-09-19T07:37:47;6.10;;;2.65;;
9304;SDS011;4690;52.422;13.486;2023-09-19T07:40:17;5.78;;;2.83;;
9304;SDS011;4690;52.422;13.486;2023-09-19T07:42:45;5.22;;;2.58;;
9304;SDS011;4690;52.422;13.486;2023-09-19T07:45:12;3.53;;;2.63;;
9304;SDS011;4690;52.422;13.486;2023-09-19T07:47:45;7.13;;;3.20;;
9304;SDS011;4690;52.422;13.486;2023-09-19T07:50:16;4.85;;;2.90;;
9304;SDS011;4690;52.422;13.486;2023-09-19T07:52:45;3.78;;;2.70;;
9304;SDS011;4690;52.422;13.486;2023-09-19T07:55:12;5.68;;;3.10;;
9304;SDS011;4690;52.422;13.486;2023-09-19T07:57:41;6.78;;;2.72;;
9304;SDS011;4690;52.422;13.486;2023-09-19T08:00:08;5.60;;;3.10;;
9304;SDS011;4690;52.422;13.486;2023-09-19T08:02:39;7.05;;;3.08;;
9304;SDS011;4690;52.422;13.486;2023-09-19T08:05:07;6.85;;;3.28;;
9304;SDS011;4690;52.422;13.486;2023-09-19T08:07:38;8.30;;;3.08;;
9304;SDS011;4690;52.422;13.486;2023-09-19T08:10:06;5.22;;;3.10;;
9304;SDS011;4690;52.422;13.486;2023-09-19T08:12:38;8.90;;;3.28;;
9304;SDS011;4690;52.422;13.486;2023-09-19T08:15:12;6.10;;;2.80;;
9304;SDS011;4690;52.422;13.486;2023-09-19T08:17:46;5.22;;;2.88;;
9304;SDS011;4690;52.422;13.486;2023-09-19T08:20:15;3.60;;;2.90;;
9304;SDS011;4690;52.422;13.486;2023-09-19T08:22:51;4.32;;;3.03;;
9304;SDS011;4690;52.422;13.486;2023-09-19T08:25:21;4.50;;;2.97;;
9304;SDS011;4690;52.422;13.486;2023-09-19T08:27:50;5.05;;;3.00;;
9304;SDS011;4690;52.422;13.486;2023-09-19T08:30:16;6.25;;;2.88;;
9304;SDS011;4690;52.422;13.486;2023-09-19T08:32:48;5.72;;;2.67;;
9304;SDS011;4690;52.422;13.486;2023-09-19T08:35:15;5.22;;;2.70;;
9304;SDS011;4690;52.422;13.486;2023-09-19T08:37:44;5.57;;;2.72;;
9304;SDS011;4690;52.422;13.486;2023-09-19T08:40:13;4.70;;;3.05;;
9304;SDS011;4690;52.422;13.486;2023-09-19T08:42:51;6.35;;;2.88;;
9304;SDS011;4690;52.422;13.486;2023-09-19T08:45:25;5.38;;;3.15;;
9304;SDS011;4690;52.422;13.486;2023-09-19T08:50:33;4.85;;;2.97;;
9304;SDS011;4690;52.422;13.486;2023-09-19T08:53:11;5.70;;;3.05;;
9304;SDS011;4690;52.422;13.486;2023-09-19T08:55:53;5.65;;;3.03;;
9304;SDS011;4690;52.422;13.486;2023-09-19T08:58:21;7.78;;;3.00;;
9304;SDS011;4690;52.422;13.486;2023-09-19T09:00:54;5.88;;;3.10;;
9304;SDS011;4690;52.422;13.486;2023-09-19T09:03:22;7.22;;;3.00;;
9304;SDS011;4690;52.422;13.486;2023-09-19T09:05:49;6.93;;;3.08;;
9304;SDS011;4690;52.422;13.486;2023-09-19T09:08:17;7.18;;;3.33;;
9304;SDS011;4690;52.422;13.486;2023-09-19T09:10:47;8.25;;;3.35;;
9304;SDS011;4690;52.422;13.486;2023-09-19T09:13:15;5.65;;;3.00;;
9304;SDS011;4690;52.422;13.486;2023-09-19T09:15:41;5.65;;;3.10;;
9304;SDS011;4690;52.422;13.486;2023-09-19T09:18:09;4.53;;;3.10;;
9304;SDS011;4690;52.422;13.486;2023-09-19T09:20:36;5.75;;;3.25;;
9304;SDS011;4690;52.422;13.486;2023-09-19T09:23:01;7.00;;;3.35;;
9304;SDS011;4690;52.422;13.486;2023-09-19T09:28:32;8.20;;;3.45;;
9304;SDS011;4690;52.422;13.486;2023-09-19T09:31:00;6.05;;;3.38;;
9304;SDS011;4690;52.422;13.486;2023-09-19T09:33:37;7.93;;;3.15;;
9304;SDS011;4690;52.422;13.486;2023-09-19T09:36:04;8.05;;;3.70;;
9304;SDS011;4690;52.422;13.486;2023-09-19T09:38:44;5.20;;;3.20;;
9304;SDS011;4690;52.422;13.486;2023-09-19T09:41:13;5.30;;;3.50;;
9304;SDS011;4690;52.422;13.486;2023-09-19T09:43:52;5.70;;;3.78;;
9304;SDS011;4690;52.422;13.486;2023-09-19T09:46:24;5.93;;;3.50;;
9304;SDS011;4690;52.422;13.486;2023-09-19T09:49:23;5.05;;;3.28;;
9304;SDS011;4690;52.422;13.486;2023-09-19T09:52:04;6.90;;;3.63;;
9304;SDS011;4690;52.422;13.486;2023-09-19T09:54:32;6.95;;;3.40;;
9304;SDS011;4690;52.422;13.486;2023-09-19T09:59:52;9.18;;;3.38;;
9304;SDS011;4690;52.422;13.486;2023-09-19T10:02:45;7.38;;;3.10;;
9304;SDS011;4690;52.422;13.486;2023-09-19T10:05:12;8.40;;;3.20;;
9304;SDS011;4690;52.422;13.486;2023-09-19T10:07:43;7.05;;;3.25;;
9304;SDS011;4690;52.422;13.486;2023-09-19T10:10:28;5.93;;;3.17;;
9304;SDS011;4690;52.422;13.486;2023-09-19T10:13:09;4.05;;;3.00;;
9304;SDS011;4690;52.422;13.486;2023-09-19T10:15:43;5.97;;;3.00;;
9304;SDS011;4690;52.422;13.486;2023-09-19T10:18:21;5.20;;;3.38;;
9304;SDS011;4690;52.422;13.486;2023-09-19T10:20:53;4.15;;;3.00;;
9304;SDS011;4690;52.422;13.486;2023-09-19T10:23:21;8.85;;;3.50;;
9304;SDS011;4690;52.422;13.486;2023-09-19T10:25:48;6.03;;;3.40;;
9304;SDS011;4690;52.422;13.486;2023-09-19T10:28:16;4.30;;;3.03;;
9304;SDS011;4690;52.422;13.486;2023-09-19T10:30:47;4.97;;;3.03;;
9304;SDS011;4690;52.422;13.486;2023-09-19T10:33:19;6.93;;;3.35;;
9304;SDS011;4690;52.422;13.486;2023-09-19T10:35:52;4.95;;;3.20;;
9304;SDS011;4690;52.422;13.486;2023-09-19T10:38:22;5.53;;;3.08;;
9304;SDS011;4690;52.422;13.486;2023-09-19T10:40:52;6.40;;;3.20;;
9304;SDS011;4690;52.422;13.486;2023-09-19T10:43:20;6.35;;;3.40;;
9304;SDS011;4690;52.422;13.486;2023-09-19T10:45:54;4.68;;;3.13;;
9304;SDS011;4690;52.422;13.486;2023-09-19T10:48:30;8.45;;;3.38;;
9304;SDS011;4690;52.422;13.486;2023-09-19T10:50:58;7.07;;;3.55;;
9304;SDS011;4690;52.422;13.486;2023-09-19T10:53:41;4.03;;;3.20;;
9304;SDS011;4690;52.422;13.486;2023-09-19T10:56:46;8.13;;;3.22;;
9304;SDS011;4690;52.422;13.486;2023-09-19T10:59:17;5.75;;;3.42;;
9304;SDS011;4690;52.422;13.486;2023-09-19T11:01:47;6.22;;;3.40;;
9304;SDS011;4690;52.422;13.486;2023-09-19T11:07:10;4.60;;;3.38;;
9304;SDS011;4690;52.422;13.486;2023-09-19T11:15:06;4.68;;;3.58;;
9304;SDS011;4690;52.422;13.486;2023-09-19T11:17:42;6.93;;;3.50;;
9304;SDS011;4690;52.422;13.486;2023-09-19T11:20:18;9.00;;;3.88;;
9304;SDS011;4690;52.422;13.486;2023-09-19T11:30:44;6.18;;;3.30;;
9304;SDS011;4690;52.422;13.486;2023-09-19T11:33:16;9.73;;;3.70;;
9304;SDS011;4690;52.422;13.486;2023-09-19T11:41:51;4.57;;;2.80;;
9304;SDS011;4690;52.422;13.486;2023-09-19T11:46:30;5.32;;;3.28;;
9304;SDS011;4690;52.422;13.486;2023-09-19T11:49:05;6.13;;;3.00;;
9304;SDS011;4690;52.422;13.486;2023-09-19T11:51:39;4.65;;;3.05;;
9304;SDS011;4690;52.422;13.486;2023-09-19T11:54:10;7.05;;;2.78;;
9304;SDS011;4690;52.422;13.486;2023-09-19T11:56:47;6.03;;;3.20;;
9304;SDS011;4690;52.422;13.486;2023-09-19T11:59:21;5.05;;;3.38;;
9304;SDS011;4690;52.422;13.486;2023-09-19T12:01:52;8.95;;;3.47;;
9304;SDS011;4690;52.422;13.486;2023-09-19T12:04:38;6.68;;;2.78;;
9304;SDS011;4690;52.422;13.486;2023-09-19T12:07:15;6.28;;;3.30;;
9304;SDS011;4690;52.422;13.486;2023-09-19T12:09:50;5.95;;;2.90;;
9304;SDS011;4690;52.422;13.486;2023-09-19T12:12:31;6.15;;;2.92;;
9304;SDS011;4690;52.422;13.486;2023-09-19T12:14:58;7.43;;;3.38;;
9304;SDS011;4690;52.422;13.486;2023-09-19T12:17:24;6.50;;;2.85;;
9304;SDS011;4690;52.422;13.486;2023-09-19T12:20:06;5.35;;;2.63;;
9304;SDS011;4690;52.422;13.486;2023-09-19T12:22:42;4.65;;;2.80;;
9304;SDS011;4690;52.422;13.486;2023-09-19T12:25:14;3.38;;;2.40;;
9304;SDS011;4690;52.422;13.486;2023-09-19T12:27:45;5.28;;;2.75;;
9304;SDS011;4690;52.422;13.486;2023-09-19T12:30:18;6.28;;;2.70;;
9304;SDS011;4690;52.422;13.486;2023-09-19T12:32:45;5.43;;;2.90;;
9304;SDS011;4690;52.422;13.486;2023-09-19T12:35:29;6.18;;;2.53;;
9304;SDS011;4690;52.422;13.486;2023-09-19T12:38:00;6.22;;;3.00;;
9304;SDS011;4690;52.422;13.486;2023-09-19T12:40:28;4.78;;;2.60;;
9304;SDS011;4690;52.422;13.486;2023-09-19T12:42:58;7.75;;;3.00;;
9304;SDS011;4690;52.422;13.486;2023-09-19T12:45:27;7.43;;;2.95;;
9304;SDS011;4690;52.422;13.486;2023-09-19T12:50:59;3.70;;;2.47;;
9304;SDS011;4690;52.422;13.486;2023-09-19T12:53:28;7.75;;;2.50;;
9304;SDS011;4690;52.422;13.486;2023-09-19T12:55:58;7.00;;;2.60;;
9304;SDS011;4690;52.422;13.486;2023-09-19T12:58:25;5.22;;;2.60;;
9304;SDS011;4690;52.422;13.486;2023-09-19T13:00:51;4.55;;;2.67;;
9304;SDS011;4690;52.422;13.486;2023-09-19T13:05:57;4.13;;;2.45;;
9304;SDS011;4690;52.422;13.486;2023-09-19T13:08:30;5.43;;;2.50;;
9304;SDS011;4690;52.422;13.486;2023-09-19T13:11:10;5.40;;;2.50;;
9304;SDS011;4690;52.422;13.486;2023-09-19T13:16:15;6.68;;;2.80;;
9304;SDS011;4690;52.422;13.486;2023-09-19T13:18:52;3.42;;;2.38;;
9304;SDS011;4690;52.422;13.486;2023-09-19T13:21:34;5.53;;;2.40;;
9304;SDS011;4690;52.422;13.486;2023-09-19T13:26:52;3.70;;;2.42;;
9304;SDS011;4690;52.422;13.486;2023-09-19T13:29:19;7.78;;;2.63;;
9304;SDS011;4690;52.422;13.486;2023-09-19T13:31:45;3.45;;;2.33;;
9304;SDS011;4690;52.422;13.486;2023-09-19T13:34:18;3.70;;;1.98;;
9304;SDS011;4690;52.422;13.486;2023-09-19T13:36:45;3.63;;;2.50;;
9304;SDS011;4690;52.422;13.486;2023-09-19T13:39:13;5.78;;;2.58;;
9304;SDS011;4690;52.422;13.486;2023-09-19T13:41:41;5.35;;;2.47;;
9304;SDS011;4690;52.422;13.486;2023-09-19T13:44:09;4.35;;;2.50;;
9304;SDS011;4690;52.422;13.486;2023-09-19T13:46:37;5.75;;;2.58;;
9304;SDS011;4690;52.422;13.486;2023-09-19T13:49:03;6.07;;;2.65;;
9304;SDS011;4690;52.422;13.486;2023-09-19T13:51:30;4.28;;;2.33;;
9304;SDS011;4690;52.422;13.486;2023-09-19T13:53:56;2.70;;;2.20;;
9304;SDS011;4690;52.422;13.486;2023-09-19T13:56:23;4.25;;;2.45;;
9304;SDS011;4690;52.422;13.486;2023-09-19T13:58:49;4.40;;;2.60;;
9304;SDS011;4690;52.422;13.486;2023-09-19T14:01:15;6.88;;;2.60;;
9304;SDS011;4690;52.422;13.486;2023-09-19T14:03:41;5.30;;;2.67;;
9304;SDS011;4690;52.422;13.486;2023-09-19T14:06:11;6.90;;;2.72;;
9304;SDS011;4690;52.422;13.486;2023-09-19T14:08:38;4.93;;;2.70;;
9304;SDS011;4690;52.422;13.486;2023-09-19T14:11:09;5.63;;;2.53;;
9304;SDS011;4690;52.422;13.486;2023-09-19T14:13:35;4.03;;;2.35;;
9304;SDS011;4690;52.422;13.486;2023-09-19T14:16:05;3.58;;;2.58;;
9304;SDS011;4690;52.422;13.486;2023-09-19T14:18:33;4.57;;;2.72;;
9304;SDS011;4690;52.422;13.486;2023-09-19T14:21:06;9.82;;;2.80;;
9304;SDS011;4690;52.422;13.486;2023-09-19T14:23:34;6.18;;;2.83;;
9304;SDS011;4690;52.422;13.486;2023-09-19T14:26:01;5.18;;;2.63;;
9304;SDS011;4690;52.422;13.486;2023-09-19T14:28:27;4.78;;;2.53;;
9304;SDS011;4690;52.422;13.486;2023-09-19T14:30:54;4.93;;;2.60;;
9304;SDS011;4690;52.422;13.486;2023-09-19T14:33:20;6.00;;;2.47;;
9304;SDS011;4690;52.422;13.486;2023-09-19T14:35:46;4.38;;;2.55;;
9304;SDS011;4690;52.422;13.486;2023-09-19T14:38:12;6.07;;;2.63;;
9304;SDS011;4690;52.422;13.486;2023-09-19T14:40:37;3.63;;;2.30;;
9304;SDS011;4690;52.422;13.486;2023-09-19T14:43:04;4.07;;;2.35;;
9304;SDS011;4690;52.422;13.486;2023-09-19T14:45:30;5.20;;;2.50;;
9304;SDS011;4690;52.422;13.486;2023-09-19T14:47:56;9.68;;;2.63;;
9304;SDS011;4690;52.422;13.486;2023-09-19T14:50:22;5.45;;;2.55;;
9304;SDS011;4690;52.422;13.486;2023-09-19T14:52:48;4.22;;;2.60;;
9304;SDS011;4690;52.422;13.486;2023-09-19T14:55:16;4.70;;;2.70;;
9304;SDS011;4690;52.422;13.486;2023-09-19T14:57:48;8.18;;;2.60;;
9304;SDS011;4690;52.422;13.486;2023-09-19T15:00:16;6.07;;;2.47;;
9304;SDS011;4690;52.422;13.486;2023-09-19T15:02:45;5.30;;;2.80;;
9304;SDS011;4690;52.422;13.486;2023-09-19T15:05:13;3.42;;;2.40;;
9304;SDS011;4690;52.422;13.486;2023-09-19T15:07:40;4.05;;;2.83;;
9304;SDS011;4690;52.422;13.486;2023-09-19T15:10:06;4.65;;;2.55;;
9304;SDS011;4690;52.422;13.486;2023-09-19T15:12:34;2.97;;;2.33;;
9304;SDS011;4690;52.422;13.486;2023-09-19T15:15:03;4.00;;;2.58;;
9304;SDS011;4690;52.422;13.486;2023-09-19T15:17:35;4.15;;;2.53;;
9304;SDS011;4690;52.422;13.486;2023-09-19T15:20:02;3.78;;;2.25;;
9304;SDS011;4690;52.422;13.486;2023-09-19T15:22:31;5.32;;;2.70;;
9304;SDS011;4690;52.422;13.486;2023-09-19T15:24:59;3.58;;;2.75;;
9304;SDS011;4690;52.422;13.486;2023-09-19T15:27:27;5.30;;;2.60;;
9304;SDS011;4690;52.422;13.486;2023-09-19T15:29:55;6.32;;;2.50;;
9304;SDS011;4690;52.422;13.486;2023-09-19T15:32:23;4.50;;;2.60;;
9304;SDS011;4690;52.422;13.486;2023-09-19T15:34:49;4.70;;;2.78;;
9304;SDS011;4690;52.422;13.486;2023-09-19T15:37:15;7.15;;;2.75;;
9304;SDS011;4690;52.422;13.486;2023-09-19T15:39:41;3.95;;;2.50;;
9304;SDS011;4690;52.422;13.486;2023-09-19T15:42:09;6.05;;;3.05;;
9304;SDS011;4690;52.422;13.486;2023-09-19T15:44:36;5.43;;;2.50;;
9304;SDS011;4690;52.422;13.486;2023-09-19T15:47:02;5.72;;;2.83;;
9304;SDS011;4690;52.422;13.486;2023-09-19T15:49:29;6.78;;;2.65;;
9304;SDS011;4690;52.422;13.486;2023-09-19T15:51:55;4.95;;;3.00;;
9304;SDS011;4690;52.422;13.486;2023-09-19T15:54:21;4.03;;;2.65;;
9304;SDS011;4690;52.422;13.486;2023-09-19T15:56:50;7.25;;;3.28;;
9304;SDS011;4690;52.422;13.486;2023-09-19T15:59:16;4.95;;;2.78;;
9304;SDS011;4690;52.422;13.486;2023-09-19T16:01:42;5.20;;;2.85;;
9304;SDS011;4690;52.422;13.486;2023-09-19T16:04:09;6.63;;;3.10;;
9304;SDS011;4690;52.422;13.486;2023-09-19T16:06:36;6.15;;;3.05;;
9304;SDS011;4690;52.422;13.486;2023-09-19T16:09:03;6.63;;;2.97;;
9304;SDS011;4690;52.422;13.486;2023-09-19T16:11:34;4.40;;;2.80;;
9304;SDS011;4690;52.422;13.486;2023-09-19T16:14:00;5.22;;;2.97;;
9304;SDS011;4690;52.422;13.486;2023-09-19T16:16:26;4.80;;;2.97;;
9304;SDS011;4690;52.422;13.486;2023-09-19T16:18:56;4.72;;;2.72;;
9304;SDS011;4690;52.422;13.486;2023-09-19T16:21:26;5.47;;;3.08;;
9304;SDS011;4690;52.422;13.486;2023-09-19T16:23:53;9.32;;;3.30;;
9304;SDS011;4690;52.422;13.486;2023-09-19T16:26:22;6.47;;;3.53;;
9304;SDS011;4690;52.422;13.486;2023-09-19T16:28:50;7.30;;;2.90;;
9304;SDS011;4690;52.422;13.486;2023-09-19T16:31:18;7.40;;;3.13;;